aviador You're here:

SBGL Decoded Metar

RIO DE JANEIRO in BRAZIL
Report Time2017-10-17 11:00:00
UTC Time2017-10-17 11:26:19
Flight Rules vfr VFR
Wind090° at 08 kt
W.Decomp.*RWY 10: 7.9 kt HW 1.5 kt RCW
RWY 15: 6.2 kt HW 5 kt LCW
W.Rank090° ranks 6
Current wind is above 090° avg. (5.1)
Visibility9999 m
Phenomena:N/A
Clouds:Few 020 Hf
Broken 045 Hf
Expected CloudBase > 2,800 ft AGL from Temp-Dew spread
Ceiling4,500 ft
Temp24°C (ISA +9)
Dew Point17°C (65% RH)
AAT23.5°C
QNH1024 hPa
Density Alt958 ft
Elevation20 ft
Report Wrong Elevation
Raw Report
METAR SBGL 171100Z 09008KT 9999 FEW020 BKN045 24/17 Q1024=

Extra information for SBGL:More info

Metar Taf Metar & Taf Last 4 Metars F.Rules Stats Wind Profile Meteogram Temp Stats Airport Information Weather charts Add Link Nearby VenuesMetar ALERT Operation Metar Decoded Social comments